sensor_id;sensor_type;location;lat;lon;timestamp;temperature;humidity
13446;DHT22;6795;51.232;3.764;2023-08-24T00:02:08;18.60;99.90
13446;DHT22;6795;51.232;3.764;2023-08-24T00:05:05;18.60;99.90
13446;DHT22;6795;51.232;3.764;2023-08-24T00:09:00;18.50;99.90
13446;DHT22;6795;51.232;3.764;2023-08-24T00:14:34;18.50;99.90
13446;DHT22;6795;51.232;3.764;2023-08-24T00:16:47;18.50;99.90
13446;DHT22;6795;51.232;3.764;2023-08-24T00:20:28;18.50;99.90
13446;DHT22;6795;51.232;3.764;2023-08-24T00:23:39;18.50;99.90
13446;DHT22;6795;51.232;3.764;2023-08-24T00:26:45;18.50;99.90
13446;DHT22;6795;51.232;3.764;2023-08-24T00:30:16;18.40;99.90
13446;DHT22;6795;51.232;3.764;2023-08-24T00:33:45;18.40;99.90
13446;DHT22;6795;51.232;3.764;2023-08-24T00:37:48;18.40;99.90
13446;DHT22;6795;51.232;3.764;2023-08-24T00:40:38;18.30;99.90
13446;DHT22;6795;51.232;3.764;2023-08-24T00:43:58;18.40;99.90
13446;DHT22;6795;51.232;3.764;2023-08-24T00:47:18;18.40;99.90
13446;DHT22;6795;51.232;3.764;2023-08-24T00:50:38;18.50;99.90
13446;DHT22;6795;51.232;3.764;2023-08-24T01:01:33;18.60;99.90
13446;DHT22;6795;51.232;3.764;2023-08-24T01:05:03;18.70;99.90
13446;DHT22;6795;51.232;3.764;2023-08-24T01:08:09;18.80;99.90
13446;DHT22;6795;51.232;3.764;2023-08-24T01:12:22;18.90;99.90
13446;DHT22;6795;51.232;3.764;2023-08-24T01:15:55;18.90;99.90
13446;DHT22;6795;51.232;3.764;2023-08-24T01:19:40;18.90;99.90
13446;DHT22;6795;51.232;3.764;2023-08-24T01:23:19;18.90;99.90
13446;DHT22;6795;51.232;3.764;2023-08-24T01:27:12;18.90;99.90
13446;DHT22;6795;51.232;3.764;2023-08-24T01:30:27;18.60;99.90
13446;DHT22;6795;51.232;3.764;2023-08-24T01:34:30;18.50;99.90
13446;DHT22;6795;51.232;3.764;2023-08-24T01:37:26;18.30;99.90
13446;DHT22;6795;51.232;3.764;2023-08-24T01:40:26;18.10;99.90
13446;DHT22;6795;51.232;3.764;2023-08-24T01:44:04;18.00;99.90
13446;DHT22;6795;51.232;3.764;2023-08-24T01:47:44;17.90;99.90
13446;DHT22;6795;51.232;3.764;2023-08-24T01:51:03;17.90;99.90
13446;DHT22;6795;51.232;3.764;2023-08-24T01:54:15;17.80;99.90
13446;DHT22;6795;51.232;3.764;2023-08-24T01:57:15;17.80;99.90
13446;DHT22;6795;51.232;3.764;2023-08-24T02:00:32;17.90;99.90
13446;DHT22;6795;51.232;3.764;2023-08-24T02:03:44;17.90;99.90
13446;DHT22;6795;51.232;3.764;2023-08-24T02:06:43;17.90;99.90
13446;DHT22;6795;51.232;3.764;2023-08-24T02:10:13;18.00;99.90
13446;DHT22;6795;51.232;3.764;2023-08-24T02:13:22;18.00;99.90
13446;DHT22;6795;51.232;3.764;2023-08-24T02:17:28;18.00;99.90
13446;DHT22;6795;51.232;3.764;2023-08-24T02:21:10;18.00;99.90
13446;DHT22;6795;51.232;3.764;2023-08-24T02:26:27;17.90;99.90
13446;DHT22;6795;51.232;3.764;2023-08-24T02:27:53;17.90;99.90
13446;DHT22;6795;51.232;3.764;2023-08-24T02:31:08;18.00;99.90
13446;DHT22;6795;51.232;3.764;2023-08-24T02:34:27;18.00;99.90
13446;DHT22;6795;51.232;3.764;2023-08-24T02:37:55;17.90;99.90
13446;DHT22;6795;51.232;3.764;2023-08-24T02:41:06;17.90;99.90
13446;DHT22;6795;51.232;3.764;2023-08-24T02:46:31;17.90;99.90
13446;DHT22;6795;51.232;3.764;2023-08-24T02:48:00;17.80;99.90
13446;DHT22;6795;51.232;3.764;2023-08-24T02:55:44;17.70;99.90
13446;DHT22;6795;51.232;3.764;2023-08-24T02:59:14;17.60;99.90
13446;DHT22;6795;51.232;3.764;2023-08-24T03:02:31;17.60;99.90
13446;DHT22;6795;51.232;3.764;2023-08-24T03:05:27;17.60;99.90
13446;DHT22;6795;51.232;3.764;2023-08-24T03:08:38;17.50;99.90
13446;DHT22;6795;51.232;3.764;2023-08-24T03:11:59;17.40;99.90
13446;DHT22;6795;51.232;3.764;2023-08-24T03:15:18;17.50;99.90
13446;DHT22;6795;51.232;3.764;2023-08-24T03:18:56;17.40;99.90
13446;DHT22;6795;51.232;3.764;2023-08-24T03:21:48;17.30;99.90
13446;DHT22;6795;51.232;3.764;2023-08-24T03:25:14;17.30;99.90
13446;DHT22;6795;51.232;3.764;2023-08-24T03:28:39;17.40;99.90
13446;DHT22;6795;51.232;3.764;2023-08-24T03:32:11;17.30;99.90
13446;DHT22;6795;51.232;3.764;2023-08-24T03:35:42;17.20;99.90
13446;DHT22;6795;51.232;3.764;2023-08-24T03:38:57;17.00;99.90
13446;DHT22;6795;51.232;3.764;2023-08-24T03:42:43;17.00;99.90
13446;DHT22;6795;51.232;3.764;2023-08-24T03:45:53;16.90;99.90
13446;DHT22;6795;51.232;3.764;2023-08-24T03:49:04;17.00;99.90
13446;DHT22;6795;51.232;3.764;2023-08-24T03:52:44;17.00;99.90
13446;DHT22;6795;51.232;3.764;2023-08-24T03:56:02;16.90;99.90
13446;DHT22;6795;51.232;3.764;2023-08-24T03:59:57;16.80;99.90
13446;DHT22;6795;51.232;3.764;2023-08-24T04:03:13;16.80;99.90
13446;DHT22;6795;51.232;3.764;2023-08-24T04:06:39;16.80;99.90
13446;DHT22;6795;51.232;3.764;2023-08-24T04:10:09;16.90;99.90
13446;DHT22;6795;51.232;3.764;2023-08-24T04:13:21;16.90;99.90
13446;DHT22;6795;51.232;3.764;2023-08-24T04:16:46;16.90;99.90
13446;DHT22;6795;51.232;3.764;2023-08-24T04:20:29;16.90;99.90
13446;DHT22;6795;51.232;3.764;2023-08-24T04:23:38;16.90;99.90
13446;DHT22;6795;51.232;3.764;2023-08-24T04:26:53;16.90;99.90
13446;DHT22;6795;51.232;3.764;2023-08-24T04:30:11;16.80;99.90
13446;DHT22;6795;51.232;3.764;2023-08-24T04:43:00;16.90;99.90
13446;DHT22;6795;51.232;3.764;2023-08-24T04:44:35;16.80;99.90
13446;DHT22;6795;51.232;3.764;2023-08-24T04:47:54;16.80;99.90
13446;DHT22;6795;51.232;3.764;2023-08-24T04:51:30;16.80;99.90
13446;DHT22;6795;51.232;3.764;2023-08-24T04:54:31;16.90;99.90
13446;DHT22;6795;51.232;3.764;2023-08-24T04:57:57;17.00;99.90
13446;DHT22;6795;51.232;3.764;2023-08-24T05:01:16;16.90;99.90
13446;DHT22;6795;51.232;3.764;2023-08-24T05:04:42;17.00;99.90
13446;DHT22;6795;51.232;3.764;2023-08-24T05:08:25;17.10;99.90
13446;DHT22;6795;51.232;3.764;2023-08-24T05:11:35;17.20;99.90
13446;DHT22;6795;51.232;3.764;2023-08-24T05:15:28;17.30;99.90
13446;DHT22;6795;51.232;3.764;2023-08-24T05:22:18;17.40;99.90
13446;DHT22;6795;51.232;3.764;2023-08-24T05:25:41;17.50;99.90
13446;DHT22;6795;51.232;3.764;2023-08-24T05:29:19;17.70;99.90
13446;DHT22;6795;51.232;3.764;2023-08-24T05:32:29;18.00;99.90
13446;DHT22;6795;51.232;3.764;2023-08-24T05:36:24;18.10;99.90
13446;DHT22;6795;51.232;3.764;2023-08-24T05:39:35;18.30;99.90
13446;DHT22;6795;51.232;3.764;2023-08-24T05:42:49;18.50;99.90
13446;DHT22;6795;51.232;3.764;2023-08-24T05:46:01;18.60;99.90
13446;DHT22;6795;51.232;3.764;2023-08-24T05:49:45;18.70;99.90
13446;DHT22;6795;51.232;3.764;2023-08-24T05:53:03;18.90;99.90
13446;DHT22;6795;51.232;3.764;2023-08-24T05:56:14;19.10;99.90
13446;DHT22;6795;51.232;3.764;2023-08-24T05:59:27;19.30;99.90
13446;DHT22;6795;51.232;3.764;2023-08-24T06:02:53;19.50;99.90
13446;DHT22;6795;51.232;3.764;2023-08-24T06:06:10;19.60;99.90
13446;DHT22;6795;51.232;3.764;2023-08-24T06:09:37;19.90;99.90
13446;DHT22;6795;51.232;3.764;2023-08-24T06:12:35;20.10;99.90
13446;DHT22;6795;51.232;3.764;2023-08-24T06:15:55;20.30;99.90
13446;DHT22;6795;51.232;3.764;2023-08-24T06:19:11;20.50;99.90
13446;DHT22;6795;51.232;3.764;2023-08-24T06:26:26;21.00;99.90
13446;DHT22;6795;51.232;3.764;2023-08-24T06:29:31;21.40;99.90
13446;DHT22;6795;51.232;3.764;2023-08-24T06:32:57;21.80;99.90
13446;DHT22;6795;51.232;3.764;2023-08-24T06:36:13;21.80;99.90
13446;DHT22;6795;51.232;3.764;2023-08-24T06:39:21;22.20;99.90
13446;DHT22;6795;51.232;3.764;2023-08-24T06:43:10;22.40;99.90
13446;DHT22;6795;51.232;3.764;2023-08-24T06:46:07;22.40;99.90
13446;DHT22;6795;51.232;3.764;2023-08-24T06:49:41;22.30;99.90
13446;DHT22;6795;51.232;3.764;2023-08-24T06:53:04;22.30;99.90
13446;DHT22;6795;51.232;3.764;2023-08-24T06:56:32;22.40;99.90
13446;DHT22;6795;51.232;3.764;2023-08-24T07:00:02;22.40;99.90
13446;DHT22;6795;51.232;3.764;2023-08-24T07:03:31;22.50;99.90
13446;DHT22;6795;51.232;3.764;2023-08-24T07:06:47;22.50;99.90
13446;DHT22;6795;51.232;3.764;2023-08-24T07:10:33;22.30;99.90
13446;DHT22;6795;51.232;3.764;2023-08-24T07:13:35;22.00;99.90
13446;DHT22;6795;51.232;3.764;2023-08-24T07:17:08;21.80;99.90
13446;DHT22;6795;51.232;3.764;2023-08-24T07:20:33;21.70;99.90
13446;DHT22;6795;51.232;3.764;2023-08-24T07:23:43;21.70;99.90
13446;DHT22;6795;51.232;3.764;2023-08-24T07:27:11;21.70;99.90
13446;DHT22;6795;51.232;3.764;2023-08-24T07:31:08;21.70;99.90
13446;DHT22;6795;51.232;3.764;2023-08-24T07:34:35;21.80;99.90
13446;DHT22;6795;51.232;3.764;2023-08-24T07:37:46;21.80;99.90
13446;DHT22;6795;51.232;3.764;2023-08-24T07:41:01;21.80;99.90
13446;DHT22;6795;51.232;3.764;2023-08-24T07:44:09;21.80;99.90
13446;DHT22;6795;51.232;3.764;2023-08-24T07:47:35;21.90;99.90
13446;DHT22;6795;51.232;3.764;2023-08-24T07:54:44;21.90;99.90
13446;DHT22;6795;51.232;3.764;2023-08-24T07:57:51;21.90;99.90
13446;DHT22;6795;51.232;3.764;2023-08-24T08:01:09;21.80;99.90
13446;DHT22;6795;51.232;3.764;2023-08-24T08:04:24;21.70;99.90
13446;DHT22;6795;51.232;3.764;2023-08-24T08:07:52;21.60;99.90
13446;DHT22;6795;51.232;3.764;2023-08-24T08:13:26;21.50;99.90
13446;DHT22;6795;51.232;3.764;2023-08-24T08:15:04;21.40;99.90
13446;DHT22;6795;51.232;3.764;2023-08-24T08:18:11;21.40;99.90
13446;DHT22;6795;51.232;3.764;2023-08-24T08:22:16;21.40;99.90
13446;DHT22;6795;51.232;3.764;2023-08-24T08:25:49;21.40;99.90
13446;DHT22;6795;51.232;3.764;2023-08-24T08:29:19;21.50;99.90
13446;DHT22;6795;51.232;3.764;2023-08-24T08:32:30;21.50;99.90
13446;DHT22;6795;51.232;3.764;2023-08-24T08:37:49;21.50;99.90
13446;DHT22;6795;51.232;3.764;2023-08-24T08:39:30;21.50;99.90
13446;DHT22;6795;51.232;3.764;2023-08-24T08:42:40;21.50;99.90
13446;DHT22;6795;51.232;3.764;2023-08-24T08:45:51;21.40;99.90
13446;DHT22;6795;51.232;3.764;2023-08-24T08:49:17;21.40;99.90
13446;DHT22;6795;51.232;3.764;2023-08-24T08:53:00;21.30;99.90
13446;DHT22;6795;51.232;3.764;2023-08-24T08:56:22;21.20;99.90
13446;DHT22;6795;51.232;3.764;2023-08-24T08:59:55;21.10;99.90
13446;DHT22;6795;51.232;3.764;2023-08-24T09:03:32;20.90;99.90
13446;DHT22;6795;51.232;3.764;2023-08-24T09:06:48;20.90;99.90
13446;DHT22;6795;51.232;3.764;2023-08-24T09:10:57;20.90;99.90
13446;DHT22;6795;51.232;3.764;2023-08-24T09:14:16;20.80;99.90
13446;DHT22;6795;51.232;3.764;2023-08-24T09:18:21;20.70;99.90
13446;DHT22;6795;51.232;3.764;2023-08-24T09:25:13;20.70;99.90
13446;DHT22;6795;51.232;3.764;2023-08-24T09:28:25;20.60;99.90
13446;DHT22;6795;51.232;3.764;2023-08-24T09:31:28;20.60;99.90
13446;DHT22;6795;51.232;3.764;2023-08-24T09:34:59;20.50;99.90
13446;DHT22;6795;51.232;3.764;2023-08-24T09:48:07;20.40;99.90
13446;DHT22;6795;51.232;3.764;2023-08-24T09:50:00;20.40;99.90
13446;DHT22;6795;51.232;3.764;2023-08-24T09:53:24;20.30;99.90
13446;DHT22;6795;51.232;3.764;2023-08-24T09:56:33;20.30;99.90
13446;DHT22;6795;51.232;3.764;2023-08-24T09:59:42;20.20;99.90
13446;DHT22;6795;51.232;3.764;2023-08-24T10:03:03;20.10;99.90
13446;DHT22;6795;51.232;3.764;2023-08-24T10:06:16;20.10;99.90
13446;DHT22;6795;51.232;3.764;2023-08-24T10:09:34;20.10;99.90
13446;DHT22;6795;51.232;3.764;2023-08-24T10:13:17;20.00;99.90
13446;DHT22;6795;51.232;3.764;2023-08-24T10:20:26;20.10;99.90
13446;DHT22;6795;51.232;3.764;2023-08-24T10:23:29;20.10;99.90
13446;DHT22;6795;51.232;3.764;2023-08-24T10:26:54;20.10;99.90
13446;DHT22;6795;51.232;3.764;2023-08-24T10:30:13;20.30;99.90
13446;DHT22;6795;51.232;3.764;2023-08-24T10:33:20;20.60;99.90
13446;DHT22;6795;51.232;3.764;2023-08-24T10:37:13;20.90;99.90
13446;DHT22;6795;51.232;3.764;2023-08-24T10:40:34;21.30;99.90
13446;DHT22;6795;51.232;3.764;2023-08-24T10:43:42;21.60;99.90
13446;DHT22;6795;51.232;3.764;2023-08-24T10:47:21;21.70;99.90
13446;DHT22;6795;51.232;3.764;2023-08-24T10:50:34;22.00;99.90
13446;DHT22;6795;51.232;3.764;2023-08-24T10:54:04;22.50;99.90
13446;DHT22;6795;51.232;3.764;2023-08-24T10:57:23;22.70;99.90
13446;DHT22;6795;51.232;3.764;2023-08-24T11:00:36;23.10;99.90
13446;DHT22;6795;51.232;3.764;2023-08-24T11:03:54;23.50;99.90
13446;DHT22;6795;51.232;3.764;2023-08-24T11:06:58;23.50;99.90
13446;DHT22;6795;51.232;3.764;2023-08-24T11:10:55;23.60;99.90
13446;DHT22;6795;51.232;3.764;2023-08-24T11:14:27;24.30;99.90
13446;DHT22;6795;51.232;3.764;2023-08-24T11:17:47;24.80;99.90
13446;DHT22;6795;51.232;3.764;2023-08-24T11:21:23;25.30;99.90
13446;DHT22;6795;51.232;3.764;2023-08-24T11:24:34;25.30;99.90
13446;DHT22;6795;51.232;3.764;2023-08-24T11:27:51;25.40;99.90
13446;DHT22;6795;51.232;3.764;2023-08-24T11:31:18;25.50;99.90
13446;DHT22;6795;51.232;3.764;2023-08-24T11:34:34;25.60;99.90
13446;DHT22;6795;51.232;3.764;2023-08-24T11:37:54;25.70;99.90
13446;DHT22;6795;51.232;3.764;2023-08-24T11:41:10;26.10;99.90
13446;DHT22;6795;51.232;3.764;2023-08-24T11:44:49;26.10;99.90
13446;DHT22;6795;51.232;3.764;2023-08-24T11:48:14;25.80;99.90
13446;DHT22;6795;51.232;3.764;2023-08-24T11:51:46;25.80;99.90
13446;DHT22;6795;51.232;3.764;2023-08-24T11:55:13;25.90;99.90
13446;DHT22;6795;51.232;3.764;2023-08-24T11:58:43;25.90;99.90
13446;DHT22;6795;51.232;3.764;2023-08-24T12:01:56;26.10;99.90
13446;DHT22;6795;51.232;3.764;2023-08-24T12:05:19;26.10;99.90
13446;DHT22;6795;51.232;3.764;2023-08-24T12:08:53;26.00;99.90
13446;DHT22;6795;51.232;3.764;2023-08-24T12:11:56;26.00;99.90
13446;DHT22;6795;51.232;3.764;2023-08-24T12:15:27;25.90;99.90
13446;DHT22;6795;51.232;3.764;2023-08-24T12:18:48;25.80;99.90
13446;DHT22;6795;51.232;3.764;2023-08-24T12:22:34;25.70;99.90
13446;DHT22;6795;51.232;3.764;2023-08-24T12:26:06;25.80;99.90
13446;DHT22;6795;51.232;3.764;2023-08-24T12:29:36;26.00;99.90
13446;DHT22;6795;51.232;3.764;2023-08-24T12:33:35;26.10;99.90
13446;DHT22;6795;51.232;3.764;2023-08-24T12:40:43;26.30;99.90
13446;DHT22;6795;51.232;3.764;2023-08-24T12:44:15;26.50;99.90
13446;DHT22;6795;51.232;3.764;2023-08-24T12:47:04;26.40;99.90
13446;DHT22;6795;51.232;3.764;2023-08-24T12:50:42;26.40;99.90
13446;DHT22;6795;51.232;3.764;2023-08-24T12:53:59;25.80;99.90
13446;DHT22;6795;51.232;3.764;2023-08-24T13:01:02;26.10;99.90
13446;DHT22;6795;51.232;3.764;2023-08-24T13:04:21;26.20;99.90
13446;DHT22;6795;51.232;3.764;2023-08-24T13:07:41;26.20;99.90
13446;DHT22;6795;51.232;3.764;2023-08-24T13:10:51;26.20;99.90
13446;DHT22;6795;51.232;3.764;2023-08-24T13:14:09;26.00;99.90
13446;DHT22;6795;51.232;3.764;2023-08-24T13:17:45;25.90;99.90
13446;DHT22;6795;51.232;3.764;2023-08-24T13:21:26;25.90;99.90
13446;DHT22;6795;51.232;3.764;2023-08-24T13:24:32;25.80;99.90
13446;DHT22;6795;51.232;3.764;2023-08-24T13:27:41;25.80;99.90
13446;DHT22;6795;51.232;3.764;2023-08-24T13:30:56;25.90;99.90
13446;DHT22;6795;51.232;3.764;2023-08-24T13:38:03;25.60;99.90
13446;DHT22;6795;51.232;3.764;2023-08-24T13:41:19;25.50;99.90
13446;DHT22;6795;51.232;3.764;2023-08-24T13:44:19;25.70;99.90
13446;DHT22;6795;51.232;3.764;2023-08-24T13:47:45;25.40;99.90
13446;DHT22;6795;51.232;3.764;2023-08-24T13:55:00;25.40;99.90
13446;DHT22;6795;51.232;3.764;2023-08-24T14:01:46;25.40;99.90
13446;DHT22;6795;51.232;3.764;2023-08-24T14:05:04;25.50;99.90
13446;DHT22;6795;51.232;3.764;2023-08-24T14:08:08;25.50;99.90
13446;DHT22;6795;51.232;3.764;2023-08-24T14:15:38;25.50;99.90
13446;DHT22;6795;51.232;3.764;2023-08-24T14:19:16;25.30;99.90
13446;DHT22;6795;51.232;3.764;2023-08-24T14:22:30;25.30;99.90
13446;DHT22;6795;51.232;3.764;2023-08-24T14:26:03;25.40;99.90
13446;DHT22;6795;51.232;3.764;2023-08-24T14:29:48;25.60;99.90
13446;DHT22;6795;51.232;3.764;2023-08-24T14:33:17;25.40;99.90
13446;DHT22;6795;51.232;3.764;2023-08-24T14:36:12;25.20;99.90
13446;DHT22;6795;51.232;3.764;2023-08-24T14:38:58;25.00;99.90
13446;DHT22;6795;51.232;3.764;2023-08-24T14:41:53;25.10;99.90
13446;DHT22;6795;51.232;3.764;2023-08-24T14:44:21;25.20;99.90
13446;DHT22;6795;51.232;3.764;2023-08-24T14:46:50;25.40;99.90
13446;DHT22;6795;51.232;3.764;2023-08-24T14:50:22;25.40;99.90
13446;DHT22;6795;51.232;3.764;2023-08-24T14:53:46;25.50;99.90
13446;DHT22;6795;51.232;3.764;2023-08-24T14:56:54;25.70;99.90
13446;DHT22;6795;51.232;3.764;2023-08-24T15:00:32;25.50;99.90
13446;DHT22;6795;51.232;3.764;2023-08-24T15:03:47;25.50;99.90
13446;DHT22;6795;51.232;3.764;2023-08-24T15:07:11;25.50;99.90
13446;DHT22;6795;51.232;3.764;2023-08-24T15:10:37;25.20;99.90
13446;DHT22;6795;51.232;3.764;2023-08-24T15:14:30;25.30;99.90
13446;DHT22;6795;51.232;3.764;2023-08-24T15:18:09;25.20;99.90
13446;DHT22;6795;51.232;3.764;2023-08-24T15:21:08;25.50;99.90
13446;DHT22;6795;51.232;3.764;2023-08-24T15:24:42;25.50;99.90
13446;DHT22;6795;51.232;3.764;2023-08-24T15:27:46;25.10;99.90
13446;DHT22;6795;51.232;3.764;2023-08-24T15:31:17;25.10;99.90
13446;DHT22;6795;51.232;3.764;2023-08-24T15:34:58;25.20;99.90
13446;DHT22;6795;51.232;3.764;2023-08-24T15:38:09;25.20;99.90
13446;DHT22;6795;51.232;3.764;2023-08-24T15:41:53;25.20;99.90
13446;DHT22;6795;51.232;3.764;2023-08-24T15:48:14;25.50;99.90
13446;DHT22;6795;51.232;3.764;2023-08-24T15:51:37;25.70;99.90
13446;DHT22;6795;51.232;3.764;2023-08-24T15:55:12;26.20;99.90
13446;DHT22;6795;51.232;3.764;2023-08-24T16:02:48;27.10;99.90
13446;DHT22;6795;51.232;3.764;2023-08-24T16:09:14;26.60;99.90
13446;DHT22;6795;51.232;3.764;2023-08-24T16:12:43;26.30;99.90
13446;DHT22;6795;51.232;3.764;2023-08-24T16:16:24;26.20;99.90
13446;DHT22;6795;51.232;3.764;2023-08-24T16:23:34;26.80;99.90
13446;DHT22;6795;51.232;3.764;2023-08-24T16:26:49;26.60;99.90
13446;DHT22;6795;51.232;3.764;2023-08-24T16:29:52;26.20;99.90
13446;DHT22;6795;51.232;3.764;2023-08-24T16:33:16;25.70;99.90
13446;DHT22;6795;51.232;3.764;2023-08-24T16:36:21;25.40;99.90
13446;DHT22;6795;51.232;3.764;2023-08-24T16:40:02;25.00;99.90
13446;DHT22;6795;51.232;3.764;2023-08-24T16:43:19;25.10;99.90
13446;DHT22;6795;51.232;3.764;2023-08-24T16:46:41;25.00;99.90
13446;DHT22;6795;51.232;3.764;2023-08-24T16:49:55;24.90;99.90
13446;DHT22;6795;51.232;3.764;2023-08-24T16:53:25;25.00;99.90
13446;DHT22;6795;51.232;3.764;2023-08-24T16:56:52;25.30;99.90
13446;DHT22;6795;51.232;3.764;2023-08-24T17:00:13;25.40;99.90
13446;DHT22;6795;51.232;3.764;2023-08-24T17:03:35;25.40;99.90
13446;DHT22;6795;51.232;3.764;2023-08-24T17:07:05;25.40;99.90
13446;DHT22;6795;51.232;3.764;2023-08-24T17:10:16;25.20;99.90
13446;DHT22;6795;51.232;3.764;2023-08-24T17:14:01;24.80;99.90
13446;DHT22;6795;51.232;3.764;2023-08-24T17:17:02;24.60;99.90
13446;DHT22;6795;51.232;3.764;2023-08-24T17:20:25;24.50;99.90
13446;DHT22;6795;51.232;3.764;2023-08-24T17:22:59;24.30;99.90
13446;DHT22;6795;51.232;3.764;2023-08-24T17:25:28;24.20;99.90
13446;DHT22;6795;51.232;3.764;2023-08-24T17:27:57;24.10;99.90
13446;DHT22;6795;51.232;3.764;2023-08-24T17:30:47;23.90;99.90
13446;DHT22;6795;51.232;3.764;2023-08-24T17:34:06;23.80;99.90
13446;DHT22;6795;51.232;3.764;2023-08-24T17:37:12;23.70;99.90
13446;DHT22;6795;51.232;3.764;2023-08-24T17:44:21;23.50;99.90
13446;DHT22;6795;51.232;3.764;2023-08-24T17:47:57;23.00;99.90
13446;DHT22;6795;51.232;3.764;2023-08-24T17:51:06;22.60;99.90
13446;DHT22;6795;51.232;3.764;2023-08-24T17:54:19;22.30;99.90
13446;DHT22;6795;51.232;3.764;2023-08-24T17:57:26;22.00;99.90
13446;DHT22;6795;51.232;3.764;2023-08-24T18:00:35;21.70;99.90
13446;DHT22;6795;51.232;3.764;2023-08-24T18:03:59;21.60;99.90
13446;DHT22;6795;51.232;3.764;2023-08-24T18:07:07;21.60;99.90
13446;DHT22;6795;51.232;3.764;2023-08-24T18:10:34;21.50;99.90
13446;DHT22;6795;51.232;3.764;2023-08-24T18:14:07;21.60;99.90
13446;DHT22;6795;51.232;3.764;2023-08-24T18:21:19;21.20;99.90
13446;DHT22;6795;51.232;3.764;2023-08-24T18:24:57;20.90;99.90
13446;DHT22;6795;51.232;3.764;2023-08-24T18:28:28;20.80;99.90
13446;DHT22;6795;51.232;3.764;2023-08-24T18:31:32;20.70;99.90
13446;DHT22;6795;51.232;3.764;2023-08-24T18:34:54;20.80;99.90
13446;DHT22;6795;51.232;3.764;2023-08-24T18:38:53;20.70;99.90
13446;DHT22;6795;51.232;3.764;2023-08-24T18:42:25;20.50;99.90
13446;DHT22;6795;51.232;3.764;2023-08-24T18:45:44;20.40;99.90
13446;DHT22;6795;51.232;3.764;2023-08-24T18:49:19;20.30;99.90
13446;DHT22;6795;51.232;3.764;2023-08-24T18:52:35;20.30;99.90
13446;DHT22;6795;51.232;3.764;2023-08-24T18:56:11;20.30;99.90
13446;DHT22;6795;51.232;3.764;2023-08-24T18:59:22;20.30;99.90
13446;DHT22;6795;51.232;3.764;2023-08-24T19:02:40;20.30;99.90
13446;DHT22;6795;51.232;3.764;2023-08-24T19:06:08;20.30;99.90
13446;DHT22;6795;51.232;3.764;2023-08-24T19:10:28;20.30;99.90
13446;DHT22;6795;51.232;3.764;2023-08-24T19:13:20;20.40;99.90
13446;DHT22;6795;51.232;3.764;2023-08-24T19:16:35;20.50;99.90
13446;DHT22;6795;51.232;3.764;2023-08-24T19:23:23;20.50;99.90
13446;DHT22;6795;51.232;3.764;2023-08-24T19:26:35;20.40;99.90
13446;DHT22;6795;51.232;3.764;2023-08-24T19:29:40;20.40;99.90
13446;DHT22;6795;51.232;3.764;2023-08-24T19:32:58;20.50;99.90
13446;DHT22;6795;51.232;3.764;2023-08-24T19:36:20;20.50;99.90
13446;DHT22;6795;51.232;3.764;2023-08-24T19:39:47;20.60;99.90
13446;DHT22;6795;51.232;3.764;2023-08-24T19:43:25;20.80;99.90
13446;DHT22;6795;51.232;3.764;2023-08-24T19:58:53;20.70;99.90
13446;DHT22;6795;51.232;3.764;2023-08-24T20:02:06;20.70;99.90
13446;DHT22;6795;51.232;3.764;2023-08-24T20:05:11;20.60;99.90
13446;DHT22;6795;51.232;3.764;2023-08-24T20:08:12;20.60;99.90
13446;DHT22;6795;51.232;3.764;2023-08-24T20:12:09;20.60;99.90
13446;DHT22;6795;51.232;3.764;2023-08-24T20:15:26;20.60;99.90
13446;DHT22;6795;51.232;3.764;2023-08-24T20:18:53;20.60;99.90
13446;DHT22;6795;51.232;3.764;2023-08-24T20:22:12;20.50;99.90
13446;DHT22;6795;51.232;3.764;2023-08-24T20:25:42;20.50;99.90
13446;DHT22;6795;51.232;3.764;2023-08-24T20:29:12;20.40;99.90
13446;DHT22;6795;51.232;3.764;2023-08-24T20:32:20;20.40;99.90
13446;DHT22;6795;51.232;3.764;2023-08-24T20:36:10;20.50;99.90
13446;DHT22;6795;51.232;3.764;2023-08-24T20:39:28;20.50;99.90
13446;DHT22;6795;51.232;3.764;2023-08-24T20:42:47;20.50;99.90
13446;DHT22;6795;51.232;3.764;2023-08-24T20:45:58;20.50;99.90
13446;DHT22;6795;51.232;3.764;2023-08-24T20:49:11;20.60;99.90
13446;DHT22;6795;51.232;3.764;2023-08-24T20:52:30;20.50;99.90
13446;DHT22;6795;51.232;3.764;2023-08-24T20:56:48;20.50;99.90
13446;DHT22;6795;51.232;3.764;2023-08-24T20:59:35;20.40;99.90
13446;DHT22;6795;51.232;3.764;2023-08-24T21:03:01;20.30;99.90
13446;DHT22;6795;51.232;3.764;2023-08-24T21:06:18;20.20;99.90
13446;DHT22;6795;51.232;3.764;2023-08-24T21:09:23;20.00;99.90
13446;DHT22;6795;51.232;3.764;2023-08-24T21:12:43;19.90;99.90
13446;DHT22;6795;51.232;3.764;2023-08-24T21:16:19;19.80;99.90
13446;DHT22;6795;51.232;3.764;2023-08-24T21:20:13;19.70;99.90
13446;DHT22;6795;51.232;3.764;2023-08-24T21:23:34;19.50;99.90
13446;DHT22;6795;51.232;3.764;2023-08-24T21:27:17;19.30;99.90
13446;DHT22;6795;51.232;3.764;2023-08-24T21:30:48;19.20;99.90
13446;DHT22;6795;51.232;3.764;2023-08-24T21:34:01;19.10;99.90
13446;DHT22;6795;51.232;3.764;2023-08-24T21:37:29;19.00;99.90
13446;DHT22;6795;51.232;3.764;2023-08-24T21:44:46;18.80;99.90
13446;DHT22;6795;51.232;3.764;2023-08-24T21:47:59;18.80;99.90
13446;DHT22;6795;51.232;3.764;2023-08-24T21:51:19;18.80;99.90
13446;DHT22;6795;51.232;3.764;2023-08-24T21:54:51;19.00;99.90
13446;DHT22;6795;51.232;3.764;2023-08-24T21:58:33;19.10;99.90
13446;DHT22;6795;51.232;3.764;2023-08-24T22:01:54;19.00;99.90
13446;DHT22;6795;51.232;3.764;2023-08-24T22:08:55;19.00;99.90
13446;DHT22;6795;51.232;3.764;2023-08-24T22:12:14;19.00;99.90
13446;DHT22;6795;51.232;3.764;2023-08-24T22:15:30;19.00;99.90
13446;DHT22;6795;51.232;3.764;2023-08-24T22:22:43;19.00;99.90
13446;DHT22;6795;51.232;3.764;2023-08-24T22:29:43;18.90;99.90
13446;DHT22;6795;51.232;3.764;2023-08-24T22:33:01;18.80;99.90
13446;DHT22;6795;51.232;3.764;2023-08-24T22:36:20;18.70;99.90
13446;DHT22;6795;51.232;3.764;2023-08-24T22:40:02;18.60;99.90
13446;DHT22;6795;51.232;3.764;2023-08-24T22:43:43;18.50;99.90
13446;DHT22;6795;51.232;3.764;2023-08-24T22:46:50;18.50;99.90
13446;DHT22;6795;51.232;3.764;2023-08-24T22:53:31;18.30;99.90
13446;DHT22;6795;51.232;3.764;2023-08-24T22:57:19;18.30;99.90
13446;DHT22;6795;51.232;3.764;2023-08-24T23:00:59;18.20;99.90
13446;DHT22;6795;51.232;3.764;2023-08-24T23:04:31;18.10;99.90
13446;DHT22;6795;51.232;3.764;2023-08-24T23:07:36;18.10;99.90
13446;DHT22;6795;51.232;3.764;2023-08-24T23:11:13;18.10;99.90
13446;DHT22;6795;51.232;3.764;2023-08-24T23:14:29;18.10;99.90
13446;DHT22;6795;51.232;3.764;2023-08-24T23:17:55;18.10;99.90
13446;DHT22;6795;51.232;3.764;2023-08-24T23:21:06;18.10;99.90
13446;DHT22;6795;51.232;3.764;2023-08-24T23:24:42;18.10;99.90
13446;DHT22;6795;51.232;3.764;2023-08-24T23:27:54;18.10;99.90
13446;DHT22;6795;51.232;3.764;2023-08-24T23:31:02;18.20;99.90
13446;DHT22;6795;51.232;3.764;2023-08-24T23:34:18;18.20;99.90
13446;DHT22;6795;51.232;3.764;2023-08-24T23:37:48;18.10;99.90
13446;DHT22;6795;51.232;3.764;2023-08-24T23:41:00;18.10;99.90
13446;DHT22;6795;51.232;3.764;2023-08-24T23:44:17;18.10;99.90